Terminal Aerodrome Forecast
Issued by NWS Grand Forks, ND

Home | Current Version | Previous Version | Text Only | Print | Product List | Glossary On
Versions: 1 2 3 4 5 6 7 8 9 10 11 12 13 14 15 16 17 18 19 20 21
734
FTUS43 KFGF 220802 AAA
TAFGFK
TAF AMD
KGFK 220802Z 2208/2306 35007KT 2SM BR OVC003
      TEMPO 2208/2212 1/2SM FG
     FM221200 36008KT 5SM BR OVC003
      TEMPO 2212/2214 2SM BR
     FM221600 36012KT P6SM OVC003
     FM221900 36016G24KT P6SM OVC008
     FM230200 35011KT P6SM BKN015=

USA.gov is the U.S. government's official web portal to all federal, state and local government web resources and services.